Pleasant Hill, CA

6:06 AM PDT on October 30, 2014 (GMT -0700)
Napa County | Change Station
CLOSE
Current Station
Airport
Location: Napa County,
Elevation: 33 ft
Nearby Weather Stations

Elev 33 ft 38.21 °N, 122.28 °W | Updated 12 minutes ago

Partly Cloudy
Partly Cloudy
55 °F
Feels Like 55 °F
N
5
Wind Variable Wind from NE

Today
High -- | Low -- °F
--% Chance of Precip.
Yesterday
High -- | Low -- °F
Precip. -- in
7:31 AM 6:11 PM
Waxing Crescent, 43% visible
Pressure 29.91 in
Visibility 10.0 miles
Clouds Clear
Dew Point 52 °F
Humidity 89%
Rainfall 0.00 in
Snow Depth Not available.
UV 0 out of 12
Pollen 2.20 out of 12
Air Quality Not available.
Flu Activity Not available.
METAR KAPC 301254Z AUTO 04004KT 10SM CLR 13/11 A2993 RMK AO2 SLP128 T01280111

More Conditions Fewer Conditions

Pressure 29.91 in
Visibility 10.0 miles
Clouds Clear
Dew Point 52 °F
Humidity 89%
Rainfall 0.00 in
Snow Depth Not available.
UV 0 out of 12
Pollen 2.20 out of 12
Air Quality Not available.
Flu Activity Not available.
METAR KAPC 301254Z AUTO 04004KT 10SM CLR 13/11 A2993 RMK AO2 SLP128 T01280111

More Conditions Fewer Conditions

10-Day Weather Forecast

Almanac

Astronomy

Oct. 30, 2014 Rise Set
Actual Time
Civil Twilight
Nautical Twilight
Astronomical Twilight
Moon
Length of Visible Light
Length of Day
Tomorrow will be .
, % of the Moon is Illuminated

Today's Extremes

State Highs State Lows

Community

WunderPhotos

Upload Photos

1,766,354 photos uploaded!

WunderBlogs® & News

Nearby

Air Quality

  Air Quality AQ Index Pollutant
Not available.

Snow Depth

Station Depth Elevation

Earthquake Activity

City Distance Mag. Time & Date
Minimum magnitude displayed is 2.5.

Coastal Water Temperatures

Place Temperature

Nearby Weather Stations